createdAt,value
2023-05-14T04:00:30.915Z,59.92
2023-05-14T04:03:15.812Z,58.44
2023-05-14T04:06:00.697Z,57.38
2023-05-14T04:08:45.535Z,57.09
2023-05-14T04:11:30.551Z,57.43
2023-05-14T04:14:15.294Z,56.77
2023-05-14T04:17:00.428Z,56.83
2023-05-14T04:19:45.041Z,60.61
2023-05-14T04:22:29.996Z,63.88
2023-05-14T04:25:14.944Z,63.43
2023-05-14T04:27:59.770Z,64.87
2023-05-14T04:30:44.567Z,62.00
2023-05-14T04:33:29.365Z,60.77
2023-05-14T04:36:14.181Z,60.17
2023-05-14T04:38:59.078Z,59.79
2023-05-14T04:41:44.014Z,59.23
2023-05-14T04:44:28.845Z,61.02
2023-05-14T04:47:13.750Z,64.50
2023-05-14T04:49:58.602Z,62.63
2023-05-14T04:52:43.463Z,62.01
2023-05-14T04:55:28.486Z,60.75
2023-05-14T04:58:13.484Z,60.84
2023-05-14T05:00:58.484Z,59.90
2023-05-14T05:03:43.359Z,59.88
2023-05-14T05:06:28.273Z,59.30
2023-05-14T05:09:13.151Z,59.69
2023-05-14T05:11:57.951Z,58.93
2023-05-14T05:14:42.814Z,59.01
2023-05-14T05:17:27.606Z,58.61
2023-05-14T05:20:12.479Z,58.25
2023-05-14T05:22:57.321Z,58.32
2023-05-14T05:25:42.118Z,58.64
2023-05-14T05:28:26.895Z,58.35
2023-05-14T05:31:11.951Z,57.88
2023-05-14T05:33:56.783Z,56.77
2023-05-14T05:36:41.664Z,56.08
2023-05-14T05:39:26.457Z,57.72
2023-05-14T05:42:11.358Z,59.13
2023-05-14T05:44:56.295Z,59.57
2023-05-14T05:47:41.305Z,59.87
2023-05-14T05:50:26.169Z,58.69
2023-05-14T05:53:10.966Z,58.39
2023-05-14T05:55:55.883Z,58.89
2023-05-14T05:58:40.629Z,59.79
2023-05-14T06:01:25.550Z,60.70
2023-05-14T06:04:10.500Z,62.16
2023-05-14T06:06:55.461Z,60.54
2023-05-14T06:09:40.411Z,59.46
2023-05-14T06:12:25.365Z,58.58
2023-05-14T06:15:10.278Z,56.79
2023-05-14T06:17:55.081Z,56.17
2023-05-14T06:20:39.951Z,57.97
2023-05-14T06:23:24.722Z,59.04
2023-05-14T06:26:09.585Z,58.02
2023-05-14T06:28:54.451Z,57.39
2023-05-14T06:31:39.450Z,56.76
2023-05-14T06:34:24.301Z,55.30
2023-05-14T06:37:09.313Z,53.06
2023-05-14T06:39:55.774Z,54.53
2023-05-14T06:42:41.937Z,52.42
2023-05-14T06:45:26.838Z,51.04
2023-05-14T06:48:11.631Z,55.67
2023-05-14T06:50:56.432Z,53.48
2023-05-14T06:53:41.222Z,56.00
2023-05-14T06:56:26.117Z,57.35
2023-05-14T06:59:11.008Z,59.46
2023-05-14T07:01:55.866Z,62.01
2023-05-14T07:04:40.831Z,61.47
2023-05-14T07:07:25.751Z,60.95
2023-05-14T07:10:10.779Z,60.63
2023-05-14T07:12:55.807Z,61.94
2023-05-14T07:15:40.754Z,64.20
2023-05-14T07:18:25.559Z,64.74
2023-05-14T07:21:10.430Z,64.65
2023-05-14T07:23:55.283Z,64.73
2023-05-14T07:26:40.241Z,63.31
2023-05-14T07:29:25.749Z,62.36
2023-05-14T07:32:10.932Z,62.30
2023-05-14T07:34:56.442Z,60.29
2023-05-14T07:37:41.282Z,62.35
2023-05-14T07:40:26.555Z,62.88
2023-05-14T07:43:11.556Z,62.59
2023-05-14T07:45:56.367Z,60.76
2023-05-14T07:48:41.326Z,59.83
2023-05-14T07:51:26.101Z,57.71
2023-05-14T07:54:10.996Z,59.76
2023-05-14T07:56:55.813Z,63.20
2023-05-14T07:59:40.663Z,61.57
2023-05-14T08:02:25.487Z,61.43
2023-05-14T08:05:10.390Z,62.47
2023-05-14T08:07:55.282Z,60.61
2023-05-14T08:10:40.209Z,58.98
2023-05-14T08:13:25.129Z,60.06
2023-05-14T08:16:09.859Z,54.68
2023-05-14T08:18:54.905Z,53.11
2023-05-14T08:21:39.791Z,54.62
2023-05-14T08:24:24.683Z,50.32
2023-05-14T08:27:09.460Z,53.52
2023-05-14T08:29:54.395Z,52.53
2023-05-14T08:32:39.542Z,55.56
2023-05-14T08:35:24.239Z,56.14
2023-05-14T08:38:09.322Z,56.98
2023-05-14T08:40:54.205Z,56.72
2023-05-14T08:43:39.136Z,52.87
2023-05-14T08:46:24.018Z,50.66
2023-05-14T08:49:08.976Z,48.18
2023-05-14T08:51:53.664Z,48.84
2023-05-14T08:54:38.562Z,44.78
2023-05-14T08:57:23.548Z,44.54
2023-05-14T09:00:08.362Z,44.73
2023-05-14T09:02:53.454Z,43.59
2023-05-14T09:05:38.094Z,45.70
2023-05-14T09:08:23.130Z,45.84
2023-05-14T09:11:07.888Z,47.64
2023-05-14T09:13:52.965Z,45.42
2023-05-14T09:16:37.926Z,51.20
2023-05-14T09:19:22.705Z,51.55
2023-05-14T09:22:07.646Z,50.69
2023-05-14T09:24:52.555Z,49.53
2023-05-14T09:27:37.515Z,48.18
2023-05-14T09:30:22.668Z,49.28
2023-05-14T09:33:07.817Z,49.79
2023-05-14T09:35:52.564Z,49.00
2023-05-14T09:38:37.238Z,50.83
2023-05-14T09:41:22.059Z,51.28
2023-05-14T09:44:06.974Z,52.05
2023-05-14T09:46:51.797Z,54.23
2023-05-14T09:49:36.653Z,52.54
2023-05-14T09:52:21.448Z,52.17
2023-05-14T09:55:06.331Z,51.24
2023-05-14T09:57:51.223Z,52.15
2023-05-14T10:00:36.086Z,50.16
2023-05-14T10:03:21.020Z,48.87
2023-05-14T10:06:05.766Z,53.93
2023-05-14T10:08:50.683Z,56.42
2023-05-14T10:11:35.557Z,50.17
2023-05-14T10:14:20.424Z,53.04
2023-05-14T10:17:05.294Z,50.87
2023-05-14T10:19:50.070Z,52.79
2023-05-14T10:22:35.053Z,55.13
2023-05-14T10:25:19.945Z,54.74
2023-05-14T10:28:04.897Z,53.49
2023-05-14T10:30:49.773Z,55.85
2023-05-14T10:33:34.674Z,54.82
2023-05-14T10:36:19.380Z,56.25
2023-05-14T10:39:04.328Z,53.22
2023-05-14T10:41:49.291Z,54.24
2023-05-14T10:44:34.190Z,52.69
2023-05-14T10:47:19.138Z,51.28
2023-05-14T10:50:03.926Z,53.40
2023-05-14T10:52:48.827Z,53.85
2023-05-14T10:55:33.660Z,55.46
2023-05-14T10:58:18.482Z,53.37
2023-05-14T11:01:03.294Z,53.54
2023-05-14T11:03:48.306Z,54.57
2023-05-14T11:06:32.985Z,55.38
2023-05-14T11:09:17.798Z,55.97
2023-05-14T11:12:02.784Z,55.19
2023-05-14T11:14:47.600Z,54.72
2023-05-14T11:17:32.592Z,53.79
2023-05-14T11:20:17.526Z,52.61
2023-05-14T11:23:02.380Z,50.60
2023-05-14T11:25:47.212Z,51.54
2023-05-14T11:28:31.935Z,49.98
2023-05-14T11:31:16.792Z,46.45
2023-05-14T11:34:01.547Z,49.77
2023-05-14T11:36:46.432Z,49.46
2023-05-14T11:39:31.251Z,49.56
2023-05-14T11:42:16.329Z,48.55
2023-05-14T11:45:01.175Z,47.93
2023-05-14T11:47:46.250Z,48.49
2023-05-14T11:50:30.967Z,46.08
2023-05-14T11:53:15.737Z,45.69
2023-05-14T11:56:00.532Z,46.37
2023-05-14T11:58:45.484Z,47.86
2023-05-14T12:01:30.275Z,46.38
2023-05-14T12:04:15.204Z,51.18
2023-05-14T12:07:00.198Z,46.82
2023-05-14T12:09:45.457Z,48.48
2023-05-14T12:12:30.493Z,43.60
2023-05-14T12:15:15.311Z,45.07
2023-05-14T12:18:02.101Z,44.53
2023-05-14T12:20:47.554Z,42.14
2023-05-14T12:23:32.389Z,44.19
2023-05-14T12:26:17.280Z,44.46
2023-05-14T12:29:02.086Z,45.99
2023-05-14T12:31:46.985Z,44.10
2023-05-14T12:34:31.883Z,44.05
2023-05-14T12:37:16.786Z,45.83
2023-05-14T12:40:01.650Z,42.57
2023-05-14T12:42:46.528Z,46.07
2023-05-14T12:45:31.418Z,46.38
2023-05-14T12:48:16.242Z,43.58
2023-05-14T12:51:01.190Z,41.05
2023-05-14T12:53:46.012Z,40.22
2023-05-14T12:56:30.921Z,43.66
2023-05-14T12:59:15.702Z,42.38
2023-05-14T13:02:00.553Z,38.50
2023-05-14T13:04:45.525Z,40.94
2023-05-14T13:07:30.428Z,38.59
2023-05-14T13:10:16.655Z,37.74
2023-05-14T13:13:01.279Z,39.25
2023-05-14T13:15:46.287Z,39.19
2023-05-14T13:18:31.185Z,37.85
2023-05-14T13:21:15.975Z,36.69
2023-05-14T13:24:00.716Z,38.31
2023-05-14T13:26:45.581Z,40.30
2023-05-14T13:29:30.501Z,42.55
2023-05-14T13:32:15.387Z,42.04
2023-05-14T13:35:00.318Z,39.11
2023-05-14T13:37:45.151Z,36.17
2023-05-14T13:40:30.141Z,34.91
2023-05-14T13:43:14.918Z,35.97
2023-05-14T13:45:59.846Z,36.57
2023-05-14T13:48:44.825Z,35.40
2023-05-14T13:51:29.738Z,36.53
2023-05-14T13:54:14.658Z,35.40
2023-05-14T13:56:59.534Z,36.33
2023-05-14T13:59:44.511Z,33.25
2023-05-14T14:02:29.456Z,35.92
2023-05-14T14:05:14.433Z,37.00
2023-05-14T14:08:04.608Z,38.37
2023-05-14T14:11:03.658Z,39.16
2023-05-14T14:13:48.719Z,38.07
2023-05-14T14:16:33.622Z,39.46
2023-05-14T14:19:18.791Z,37.59
2023-05-14T14:22:03.743Z,40.80
2023-05-14T14:24:48.642Z,44.40
2023-05-14T14:27:33.506Z,38.51
2023-05-14T14:30:18.332Z,45.07
2023-05-14T14:33:03.233Z,45.13
2023-05-14T14:35:48.113Z,43.42
2023-05-14T14:38:33.027Z,43.91
2023-05-14T14:41:17.875Z,44.90
2023-05-14T14:44:02.694Z,40.54
2023-05-14T14:46:47.488Z,41.50
2023-05-14T14:49:32.607Z,40.39
2023-05-14T14:52:17.341Z,40.41
2023-05-14T14:55:02.210Z,40.34
2023-05-14T14:57:47.098Z,39.97
2023-05-14T15:00:32.127Z,38.65
2023-05-14T15:03:17.198Z,39.75
2023-05-14T15:06:01.859Z,36.46
2023-05-14T15:08:46.770Z,36.55
2023-05-14T15:11:31.596Z,34.35
2023-05-14T15:14:16.471Z,33.40
2023-05-14T15:17:01.256Z,34.01
2023-05-14T15:19:46.134Z,35.96
2023-05-14T15:22:31.083Z,34.31
2023-05-14T15:25:16.004Z,34.63
2023-05-14T15:28:00.888Z,35.42
2023-05-14T15:30:45.690Z,36.26
2023-05-14T15:33:30.567Z,34.29
2023-05-14T15:36:15.369Z,36.09
2023-05-14T15:39:00.246Z,39.53
2023-05-14T15:41:44.939Z,38.25
2023-05-14T15:44:29.970Z,37.76
2023-05-14T15:47:14.762Z,39.74
2023-05-14T15:49:59.638Z,36.91
2023-05-14T15:52:44.642Z,35.46
2023-05-14T15:55:29.495Z,36.92
2023-05-14T15:58:14.342Z,36.81
2023-05-14T16:00:59.084Z,33.68
2023-05-14T16:03:44.045Z,37.89
2023-05-14T16:06:28.749Z,35.80
2023-05-14T16:09:13.693Z,37.34
2023-05-14T16:11:58.632Z,37.63
2023-05-14T16:14:43.352Z,35.36
2023-05-14T16:17:28.374Z,34.19
2023-05-14T16:20:13.169Z,35.59
2023-05-14T16:22:58.045Z,33.56
2023-05-14T16:25:42.882Z,32.06
2023-05-14T16:28:27.826Z,32.47
2023-05-14T16:31:12.630Z,33.75
2023-05-14T16:33:57.788Z,33.67
2023-05-14T16:36:42.591Z,32.57
2023-05-14T16:39:27.508Z,31.21
2023-05-14T16:42:12.408Z,31.51
2023-05-14T16:44:57.329Z,31.03
2023-05-14T16:47:42.308Z,32.31
2023-05-14T16:50:27.079Z,34.94
2023-05-14T16:53:11.928Z,38.09
2023-05-14T16:55:56.783Z,36.14
2023-05-14T16:58:41.795Z,35.40
2023-05-14T17:01:26.604Z,36.61
2023-05-14T17:04:11.675Z,37.89
2023-05-14T17:06:56.530Z,36.75
2023-05-14T17:09:41.508Z,43.48
2023-05-14T17:12:26.506Z,47.01
2023-05-14T17:15:11.319Z,44.95
2023-05-14T17:17:56.252Z,45.82
2023-05-14T17:20:41.088Z,44.85
2023-05-14T17:23:25.945Z,44.29
2023-05-14T17:26:10.709Z,44.68
2023-05-14T17:28:55.625Z,47.47
2023-05-14T17:31:40.597Z,46.74
2023-05-14T17:34:25.470Z,44.87
2023-05-14T17:37:10.478Z,44.04
2023-05-14T17:39:55.357Z,42.40
2023-05-14T17:42:40.263Z,42.00
2023-05-14T17:45:25.592Z,41.30
2023-05-14T17:48:10.573Z,40.86
2023-05-14T17:50:55.353Z,39.24
2023-05-14T17:53:40.333Z,39.24
2023-05-14T17:56:25.304Z,39.37
2023-05-14T17:59:10.220Z,39.38
2023-05-14T18:01:55.167Z,37.96
2023-05-14T18:04:39.999Z,37.34
2023-05-14T18:07:24.908Z,38.08
2023-05-14T18:10:09.789Z,37.75
2023-05-14T18:12:54.619Z,36.69
2023-05-14T18:15:39.439Z,37.54
2023-05-14T18:18:24.340Z,39.44
2023-05-14T18:21:09.287Z,39.41
2023-05-14T18:23:54.194Z,38.60
2023-05-14T18:26:39.166Z,38.24
2023-05-14T18:29:24.096Z,37.67
2023-05-14T18:32:08.997Z,39.07
2023-05-14T18:34:53.817Z,38.31
2023-05-14T18:37:38.652Z,39.76
2023-05-14T18:40:23.610Z,40.71
2023-05-14T18:43:08.508Z,41.88
2023-05-14T18:45:53.353Z,41.54
2023-05-14T18:48:38.318Z,41.95
2023-05-14T18:51:23.273Z,41.50
2023-05-14T18:54:08.182Z,41.17
2023-05-14T18:56:53.048Z,41.31
2023-05-14T18:59:37.793Z,42.52
2023-05-14T19:02:22.827Z,42.32
2023-05-14T19:05:07.591Z,42.01
2023-05-14T19:07:52.625Z,43.83
2023-05-14T19:10:37.367Z,43.57
2023-05-14T19:13:22.251Z,43.51
2023-05-14T19:16:07.211Z,43.49
2023-05-14T19:18:52.069Z,43.19
2023-05-14T19:21:37.044Z,44.84
2023-05-14T19:24:21.856Z,44.79
2023-05-14T19:27:06.793Z,44.34
2023-05-14T19:29:51.625Z,43.96
2023-05-14T19:32:36.615Z,43.61
2023-05-14T19:35:21.518Z,43.77
2023-05-14T19:38:06.425Z,44.64
2023-05-14T19:40:51.318Z,46.09
2023-05-14T19:43:36.171Z,46.19
2023-05-14T19:46:21.085Z,46.13
2023-05-14T19:49:05.895Z,46.25
2023-05-14T19:51:50.881Z,45.74
2023-05-14T19:54:35.715Z,45.83
2023-05-14T19:57:20.749Z,46.92
2023-05-14T20:00:05.575Z,50.18
2023-05-14T20:02:50.671Z,50.37
2023-05-14T20:05:35.395Z,48.06
2023-05-14T20:08:20.125Z,48.67
2023-05-14T20:11:05.074Z,48.51
2023-05-14T20:13:49.851Z,48.23
2023-05-14T20:16:34.805Z,48.76
2023-05-14T20:19:19.813Z,48.26
2023-05-14T20:22:04.779Z,47.79
2023-05-14T20:24:49.690Z,48.46
2023-05-14T20:27:34.685Z,49.84
2023-05-14T20:30:19.527Z,48.87
2023-05-14T20:33:04.372Z,49.32
2023-05-14T20:35:49.311Z,49.64
2023-05-14T20:38:34.188Z,48.71
2023-05-14T20:41:19.117Z,48.76
2023-05-14T20:44:04.078Z,48.33
2023-05-14T20:46:49.071Z,48.68
2023-05-14T20:49:33.907Z,48.38
2023-05-14T20:52:18.900Z,48.18
2023-05-14T20:55:03.695Z,48.11
2023-05-14T20:57:48.495Z,48.89
